sensor_id;sensor_type;location;lat;lon;timestamp;P1;durP1;ratioP1;P2;durP2;ratioP2
56943;SDS011;42848;42.524;12.052;2022-07-21T00:01:33;6.55;;;5.50;;
56943;SDS011;42848;42.524;12.052;2022-07-21T00:03:59;6.43;;;5.35;;
56943;SDS011;42848;42.524;12.052;2022-07-21T00:06:25;9.35;;;6.95;;
56943;SDS011;42848;42.524;12.052;2022-07-21T00:08:51;9.95;;;7.00;;
56943;SDS011;42848;42.524;12.052;2022-07-21T00:11:17;11.45;;;7.22;;
56943;SDS011;42848;42.524;12.052;2022-07-21T00:13:42;13.90;;;7.32;;
56943;SDS011;42848;42.524;12.052;2022-07-21T00:16:08;12.57;;;7.35;;
56943;SDS011;42848;42.524;12.052;2022-07-21T00:18:34;12.95;;;7.22;;
56943;SDS011;42848;42.524;12.052;2022-07-21T00:21:00;13.35;;;7.25;;
56943;SDS011;42848;42.524;12.052;2022-07-21T00:23:26;11.57;;;6.53;;
56943;SDS011;42848;42.524;12.052;2022-07-21T00:25:53;12.00;;;6.63;;
56943;SDS011;42848;42.524;12.052;2022-07-21T00:28:19;13.77;;;7.03;;
56943;SDS011;42848;42.524;12.052;2022-07-21T00:30:45;8.45;;;6.00;;
56943;SDS011;42848;42.524;12.052;2022-07-21T00:33:12;14.13;;;6.20;;
56943;SDS011;42848;42.524;12.052;2022-07-21T00:35:38;11.90;;;6.65;;
56943;SDS011;42848;42.524;12.052;2022-07-21T00:38:04;8.85;;;6.47;;
56943;SDS011;42848;42.524;12.052;2022-07-21T00:40:30;11.30;;;7.18;;
56943;SDS011;42848;42.524;12.052;2022-07-21T00:42:56;7.95;;;5.95;;
56943;SDS011;42848;42.524;12.052;2022-07-21T00:45:22;7.65;;;6.28;;
56943;SDS011;42848;42.524;12.052;2022-07-21T00:47:48;10.05;;;7.10;;
56943;SDS011;42848;42.524;12.052;2022-07-21T00:50:18;9.95;;;7.40;;
56943;SDS011;42848;42.524;12.052;2022-07-21T00:52:45;11.07;;;7.28;;
56943;SDS011;42848;42.524;12.052;2022-07-21T00:55:13;11.07;;;6.93;;
56943;SDS011;42848;42.524;12.052;2022-07-21T00:57:40;10.70;;;7.10;;
56943;SDS011;42848;42.524;12.052;2022-07-21T01:00:09;9.57;;;7.00;;
56943;SDS011;42848;42.524;12.052;2022-07-21T01:02:37;10.90;;;7.35;;
56943;SDS011;42848;42.524;12.052;2022-07-21T01:05:04;10.40;;;7.45;;
56943;SDS011;42848;42.524;12.052;2022-07-21T01:07:32;10.65;;;7.40;;
56943;SDS011;42848;42.524;12.052;2022-07-21T01:09:58;11.02;;;7.65;;
56943;SDS011;42848;42.524;12.052;2022-07-21T01:12:24;11.80;;;7.40;;
56943;SDS011;42848;42.524;12.052;2022-07-21T01:14:50;10.07;;;7.93;;
56943;SDS011;42848;42.524;12.052;2022-07-21T01:17:17;10.52;;;7.60;;
56943;SDS011;42848;42.524;12.052;2022-07-21T01:19:43;10.32;;;7.40;;
56943;SDS011;42848;42.524;12.052;2022-07-21T01:22:09;15.07;;;7.40;;
56943;SDS011;42848;42.524;12.052;2022-07-21T01:24:36;14.00;;;8.30;;
56943;SDS011;42848;42.524;12.052;2022-07-21T01:27:01;18.58;;;7.88;;
56943;SDS011;42848;42.524;12.052;2022-07-21T01:29:27;14.38;;;7.72;;
56943;SDS011;42848;42.524;12.052;2022-07-21T01:31:53;14.65;;;8.18;;
56943;SDS011;42848;42.524;12.052;2022-07-21T01:34:19;12.55;;;7.78;;
56943;SDS011;42848;42.524;12.052;2022-07-21T01:36:45;12.80;;;7.45;;
56943;SDS011;42848;42.524;12.052;2022-07-21T01:39:11;11.68;;;7.03;;
56943;SDS011;42848;42.524;12.052;2022-07-21T01:41:55;16.13;;;7.47;;
56943;SDS011;42848;42.524;12.052;2022-07-21T01:44:21;9.60;;;6.65;;
56943;SDS011;42848;42.524;12.052;2022-07-21T01:46:48;11.55;;;7.32;;
56943;SDS011;42848;42.524;12.052;2022-07-21T01:49:17;9.85;;;6.68;;
56943;SDS011;42848;42.524;12.052;2022-07-21T01:51:44;7.85;;;6.45;;
56943;SDS011;42848;42.524;12.052;2022-07-21T01:54:10;7.53;;;6.13;;
56943;SDS011;42848;42.524;12.052;2022-07-21T01:56:36;6.63;;;5.22;;
56943;SDS011;42848;42.524;12.052;2022-07-21T01:59:04;6.68;;;5.47;;
56943;SDS011;42848;42.524;12.052;2022-07-21T02:01:31;6.80;;;5.63;;
56943;SDS011;42848;42.524;12.052;2022-07-21T02:03:58;6.35;;;5.10;;
56943;SDS011;42848;42.524;12.052;2022-07-21T02:06:26;6.10;;;5.50;;
56943;SDS011;42848;42.524;12.052;2022-07-21T02:08:52;11.02;;;7.18;;
56943;SDS011;42848;42.524;12.052;2022-07-21T02:11:18;8.20;;;6.88;;
56943;SDS011;42848;42.524;12.052;2022-07-21T02:13:45;7.15;;;6.45;;
56943;SDS011;42848;42.524;12.052;2022-07-21T02:16:11;9.00;;;6.55;;
56943;SDS011;42848;42.524;12.052;2022-07-21T02:18:37;7.07;;;5.63;;
56943;SDS011;42848;42.524;12.052;2022-07-21T02:21:04;5.78;;;5.22;;
56943;SDS011;42848;42.524;12.052;2022-07-21T02:23:31;5.68;;;5.07;;
56943;SDS011;42848;42.524;12.052;2022-07-21T02:25:57;5.97;;;5.35;;
56943;SDS011;42848;42.524;12.052;2022-07-21T02:28:23;6.55;;;5.60;;
56943;SDS011;42848;42.524;12.052;2022-07-21T02:30:49;6.38;;;5.70;;
56943;SDS011;42848;42.524;12.052;2022-07-21T02:33:16;4.90;;;4.40;;
56943;SDS011;42848;42.524;12.052;2022-07-21T02:35:42;4.75;;;4.25;;
56943;SDS011;42848;42.524;12.052;2022-07-21T02:38:09;4.93;;;4.25;;
56943;SDS011;42848;42.524;12.052;2022-07-21T02:40:36;4.68;;;4.10;;
56943;SDS011;42848;42.524;12.052;2022-07-21T02:43:03;5.35;;;4.20;;
56943;SDS011;42848;42.524;12.052;2022-07-21T02:45:30;5.10;;;4.60;;
56943;SDS011;42848;42.524;12.052;2022-07-21T02:47:58;4.95;;;4.45;;
56943;SDS011;42848;42.524;12.052;2022-07-21T02:50:26;5.10;;;4.60;;
56943;SDS011;42848;42.524;12.052;2022-07-21T02:52:59;4.75;;;4.30;;
56943;SDS011;42848;42.524;12.052;2022-07-21T02:55:27;4.40;;;4.00;;
56943;SDS011;42848;42.524;12.052;2022-07-21T02:58:03;5.07;;;4.13;;
56943;SDS011;42848;42.524;12.052;2022-07-21T03:00:43;5.07;;;4.05;;
56943;SDS011;42848;42.524;12.052;2022-07-21T03:03:10;5.18;;;4.30;;
56943;SDS011;42848;42.524;12.052;2022-07-21T03:05:37;5.25;;;4.28;;
56943;SDS011;42848;42.524;12.052;2022-07-21T03:08:03;5.07;;;4.50;;
56943;SDS011;42848;42.524;12.052;2022-07-21T03:10:31;4.97;;;4.40;;
56943;SDS011;42848;42.524;12.052;2022-07-21T03:12:56;6.60;;;4.70;;
56943;SDS011;42848;42.524;12.052;2022-07-21T03:15:22;5.00;;;4.20;;
56943;SDS011;42848;42.524;12.052;2022-07-21T03:17:48;5.60;;;4.15;;
56943;SDS011;42848;42.524;12.052;2022-07-21T03:20:14;5.38;;;4.20;;
56943;SDS011;42848;42.524;12.052;2022-07-21T03:22:40;6.05;;;4.70;;
56943;SDS011;42848;42.524;12.052;2022-07-21T03:25:06;7.20;;;4.75;;
56943;SDS011;42848;42.524;12.052;2022-07-21T03:27:33;6.90;;;4.60;;
56943;SDS011;42848;42.524;12.052;2022-07-21T03:30:05;6.47;;;4.63;;
56943;SDS011;42848;42.524;12.052;2022-07-21T03:32:32;4.70;;;4.20;;
56943;SDS011;42848;42.524;12.052;2022-07-21T03:34:58;5.38;;;4.20;;
56943;SDS011;42848;42.524;12.052;2022-07-21T03:37:24;6.03;;;4.88;;
56943;SDS011;42848;42.524;12.052;2022-07-21T03:39:50;6.18;;;4.70;;
56943;SDS011;42848;42.524;12.052;2022-07-21T03:42:15;5.35;;;4.78;;
56943;SDS011;42848;42.524;12.052;2022-07-21T03:44:41;5.07;;;4.07;;
56943;SDS011;42848;42.524;12.052;2022-07-21T03:47:07;4.75;;;3.92;;
56943;SDS011;42848;42.524;12.052;2022-07-21T03:49:32;4.80;;;4.03;;
56943;SDS011;42848;42.524;12.052;2022-07-21T03:51:58;6.43;;;4.30;;
56943;SDS011;42848;42.524;12.052;2022-07-21T03:54:24;4.82;;;4.07;;
56943;SDS011;42848;42.524;12.052;2022-07-21T03:56:49;8.75;;;4.20;;
56943;SDS011;42848;42.524;12.052;2022-07-21T03:59:15;7.38;;;4.50;;
56943;SDS011;42848;42.524;12.052;2022-07-21T04:01:41;5.75;;;4.53;;
56943;SDS011;42848;42.524;12.052;2022-07-21T04:04:06;5.57;;;3.90;;
56943;SDS011;42848;42.524;12.052;2022-07-21T04:06:32;6.55;;;4.32;;
56943;SDS011;42848;42.524;12.052;2022-07-21T04:08:58;5.10;;;4.28;;
56943;SDS011;42848;42.524;12.052;2022-07-21T04:11:23;6.60;;;4.20;;
56943;SDS011;42848;42.524;12.052;2022-07-21T04:13:49;6.32;;;4.20;;
56943;SDS011;42848;42.524;12.052;2022-07-21T04:16:15;5.63;;;4.35;;
56943;SDS011;42848;42.524;12.052;2022-07-21T04:18:40;6.68;;;4.38;;
56943;SDS011;42848;42.524;12.052;2022-07-21T04:21:06;4.72;;;4.20;;
56943;SDS011;42848;42.524;12.052;2022-07-21T04:23:32;8.02;;;4.38;;
56943;SDS011;42848;42.524;12.052;2022-07-21T04:25:58;11.60;;;4.95;;
56943;SDS011;42848;42.524;12.052;2022-07-21T04:28:23;6.55;;;4.82;;
56943;SDS011;42848;42.524;12.052;2022-07-21T04:30:49;8.27;;;4.90;;
56943;SDS011;42848;42.524;12.052;2022-07-21T04:33:15;5.00;;;4.40;;
56943;SDS011;42848;42.524;12.052;2022-07-21T04:35:40;5.40;;;4.45;;
56943;SDS011;42848;42.524;12.052;2022-07-21T04:38:08;6.75;;;4.47;;
56943;SDS011;42848;42.524;12.052;2022-07-21T04:40:34;6.78;;;4.50;;
56943;SDS011;42848;42.524;12.052;2022-07-21T04:43:00;6.60;;;4.50;;
56943;SDS011;42848;42.524;12.052;2022-07-21T04:45:26;6.53;;;4.60;;
56943;SDS011;42848;42.524;12.052;2022-07-21T04:47:53;7.20;;;5.18;;
56943;SDS011;42848;42.524;12.052;2022-07-21T04:50:21;7.00;;;4.43;;
56943;SDS011;42848;42.524;12.052;2022-07-21T04:52:47;5.95;;;4.70;;
56943;SDS011;42848;42.524;12.052;2022-07-21T04:55:14;7.57;;;4.70;;
56943;SDS011;42848;42.524;12.052;2022-07-21T04:57:44;9.90;;;4.70;;
56943;SDS011;42848;42.524;12.052;2022-07-21T05:00:13;5.57;;;4.60;;
56943;SDS011;42848;42.524;12.052;2022-07-21T05:02:41;7.80;;;4.57;;
56943;SDS011;42848;42.524;12.052;2022-07-21T05:05:08;8.57;;;4.50;;
56943;SDS011;42848;42.524;12.052;2022-07-21T05:07:34;7.22;;;4.60;;
56943;SDS011;42848;42.524;12.052;2022-07-21T05:10:04;10.27;;;4.88;;
56943;SDS011;42848;42.524;12.052;2022-07-21T05:12:31;8.73;;;4.90;;
56943;SDS011;42848;42.524;12.052;2022-07-21T05:14:57;6.97;;;4.88;;
56943;SDS011;42848;42.524;12.052;2022-07-21T05:17:22;7.43;;;4.80;;
56943;SDS011;42848;42.524;12.052;2022-07-21T05:19:48;8.88;;;5.18;;
56943;SDS011;42848;42.524;12.052;2022-07-21T05:22:16;8.00;;;4.90;;
56943;SDS011;42848;42.524;12.052;2022-07-21T05:24:42;8.07;;;5.13;;
56943;SDS011;42848;42.524;12.052;2022-07-21T05:27:08;8.48;;;5.50;;
56943;SDS011;42848;42.524;12.052;2022-07-21T05:29:34;9.25;;;5.07;;
56943;SDS011;42848;42.524;12.052;2022-07-21T05:31:59;8.27;;;5.05;;
56943;SDS011;42848;42.524;12.052;2022-07-21T05:34:25;11.07;;;5.28;;
56943;SDS011;42848;42.524;12.052;2022-07-21T05:36:50;9.50;;;5.60;;
56943;SDS011;42848;42.524;12.052;2022-07-21T05:39:18;8.27;;;5.20;;
56943;SDS011;42848;42.524;12.052;2022-07-21T05:41:44;11.25;;;5.47;;
56943;SDS011;42848;42.524;12.052;2022-07-21T05:44:10;9.80;;;5.28;;
56943;SDS011;42848;42.524;12.052;2022-07-21T05:46:35;7.70;;;4.70;;
56943;SDS011;42848;42.524;12.052;2022-07-21T05:49:01;20.90;;;5.82;;
56943;SDS011;42848;42.524;12.052;2022-07-21T05:51:27;25.70;;;5.97;;
56943;SDS011;42848;42.524;12.052;2022-07-21T05:53:52;9.45;;;5.10;;
56943;SDS011;42848;42.524;12.052;2022-07-21T05:56:18;9.32;;;4.22;;
56943;SDS011;42848;42.524;12.052;2022-07-21T05:58:44;7.45;;;6.00;;
56943;SDS011;42848;42.524;12.052;2022-07-21T06:01:09;6.78;;;4.55;;
56943;SDS011;42848;42.524;12.052;2022-07-21T06:03:40;5.95;;;4.40;;
56943;SDS011;42848;42.524;12.052;2022-07-21T06:06:08;6.25;;;4.72;;
56943;SDS011;42848;42.524;12.052;2022-07-21T06:08:36;9.15;;;5.00;;
56943;SDS011;42848;42.524;12.052;2022-07-21T06:11:04;9.52;;;7.25;;
56943;SDS011;42848;42.524;12.052;2022-07-21T06:13:29;154.30;;;16.52;;
56943;SDS011;42848;42.524;12.052;2022-07-21T06:15:55;146.23;;;20.67;;
56943;SDS011;42848;42.524;12.052;2022-07-21T06:18:21;21.45;;;6.07;;
56943;SDS011;42848;42.524;12.052;2022-07-21T06:20:46;10.35;;;5.45;;
56943;SDS011;42848;42.524;12.052;2022-07-21T06:23:12;12.35;;;5.82;;
56943;SDS011;42848;42.524;12.052;2022-07-21T06:25:38;8.35;;;4.60;;
56943;SDS011;42848;42.524;12.052;2022-07-21T06:28:03;8.32;;;5.45;;
56943;SDS011;42848;42.524;12.052;2022-07-21T06:30:29;15.70;;;6.32;;
56943;SDS011;42848;42.524;12.052;2022-07-21T06:32:55;6.88;;;4.32;;
56943;SDS011;42848;42.524;12.052;2022-07-21T06:35:20;7.25;;;4.53;;
56943;SDS011;42848;42.524;12.052;2022-07-21T06:37:46;7.22;;;4.53;;
56943;SDS011;42848;42.524;12.052;2022-07-21T06:40:12;7.35;;;4.20;;
56943;SDS011;42848;42.524;12.052;2022-07-21T06:42:38;7.78;;;3.95;;
56943;SDS011;42848;42.524;12.052;2022-07-21T06:45:04;9.20;;;5.10;;
56943;SDS011;42848;42.524;12.052;2022-07-21T06:47:30;7.07;;;4.00;;
56943;SDS011;42848;42.524;12.052;2022-07-21T06:49:56;7.45;;;4.13;;
56943;SDS011;42848;42.524;12.052;2022-07-21T06:52:27;11.02;;;4.22;;
56943;SDS011;42848;42.524;12.052;2022-07-21T06:54:56;5.85;;;4.10;;
56943;SDS011;42848;42.524;12.052;2022-07-21T06:57:22;7.07;;;4.35;;
56943;SDS011;42848;42.524;12.052;2022-07-21T06:59:48;6.72;;;4.90;;
56943;SDS011;42848;42.524;12.052;2022-07-21T07:02:15;7.63;;;4.63;;
56943;SDS011;42848;42.524;12.052;2022-07-21T07:04:40;10.15;;;4.43;;
56943;SDS011;42848;42.524;12.052;2022-07-21T07:07:06;5.43;;;4.28;;
56943;SDS011;42848;42.524;12.052;2022-07-21T07:09:32;8.68;;;4.50;;
56943;SDS011;42848;42.524;12.052;2022-07-21T07:11:58;7.40;;;5.15;;
56943;SDS011;42848;42.524;12.052;2022-07-21T07:14:32;6.10;;;4.43;;
56943;SDS011;42848;42.524;12.052;2022-07-21T07:16:59;10.57;;;4.72;;
56943;SDS011;42848;42.524;12.052;2022-07-21T07:19:25;6.68;;;4.32;;
56943;SDS011;42848;42.524;12.052;2022-07-21T07:21:51;9.70;;;4.78;;
56943;SDS011;42848;42.524;12.052;2022-07-21T07:24:16;5.80;;;4.60;;
56943;SDS011;42848;42.524;12.052;2022-07-21T07:26:42;6.85;;;4.55;;
56943;SDS011;42848;42.524;12.052;2022-07-21T07:29:08;5.45;;;4.30;;
56943;SDS011;42848;42.524;12.052;2022-07-21T07:31:34;7.20;;;4.20;;
56943;SDS011;42848;42.524;12.052;2022-07-21T07:34:00;9.10;;;4.25;;
56943;SDS011;42848;42.524;12.052;2022-07-21T07:36:26;8.40;;;5.10;;
56943;SDS011;42848;42.524;12.052;2022-07-21T07:38:53;7.70;;;4.88;;
56943;SDS011;42848;42.524;12.052;2022-07-21T07:41:20;10.15;;;5.10;;
56943;SDS011;42848;42.524;12.052;2022-07-21T07:43:47;8.35;;;5.65;;
56943;SDS011;42848;42.524;12.052;2022-07-21T07:46:14;7.25;;;4.85;;
56943;SDS011;42848;42.524;12.052;2022-07-21T07:48:40;6.70;;;5.13;;
56943;SDS011;42848;42.524;12.052;2022-07-21T07:51:07;8.80;;;5.05;;
56943;SDS011;42848;42.524;12.052;2022-07-21T07:53:34;10.23;;;5.60;;
56943;SDS011;42848;42.524;12.052;2022-07-21T07:56:00;9.10;;;4.93;;
56943;SDS011;42848;42.524;12.052;2022-07-21T07:58:26;6.07;;;4.75;;
56943;SDS011;42848;42.524;12.052;2022-07-21T08:00:52;7.50;;;4.70;;
56943;SDS011;42848;42.524;12.052;2022-07-21T08:03:18;6.07;;;4.70;;
56943;SDS011;42848;42.524;12.052;2022-07-21T08:05:43;6.60;;;4.90;;
56943;SDS011;42848;42.524;12.052;2022-07-21T08:08:09;6.22;;;4.90;;
56943;SDS011;42848;42.524;12.052;2022-07-21T08:10:35;6.95;;;4.85;;
56943;SDS011;42848;42.524;12.052;2022-07-21T08:13:01;7.85;;;5.40;;
56943;SDS011;42848;42.524;12.052;2022-07-21T08:15:26;7.05;;;5.10;;
56943;SDS011;42848;42.524;12.052;2022-07-21T08:17:53;8.48;;;4.70;;
56943;SDS011;42848;42.524;12.052;2022-07-21T08:20:18;8.05;;;5.30;;
56943;SDS011;42848;42.524;12.052;2022-07-21T08:22:44;8.95;;;5.32;;
56943;SDS011;42848;42.524;12.052;2022-07-21T08:25:10;7.40;;;5.20;;
56943;SDS011;42848;42.524;12.052;2022-07-21T08:27:35;7.45;;;5.18;;
56943;SDS011;42848;42.524;12.052;2022-07-21T08:30:04;10.30;;;5.25;;
56943;SDS011;42848;42.524;12.052;2022-07-21T08:32:29;7.80;;;5.47;;
56943;SDS011;42848;42.524;12.052;2022-07-21T08:34:55;9.77;;;5.68;;
56943;SDS011;42848;42.524;12.052;2022-07-21T08:37:21;9.73;;;5.40;;
56943;SDS011;42848;42.524;12.052;2022-07-21T08:39:47;8.68;;;5.60;;
56943;SDS011;42848;42.524;12.052;2022-07-21T08:42:13;7.43;;;5.70;;
56943;SDS011;42848;42.524;12.052;2022-07-21T08:44:39;7.15;;;5.47;;
56943;SDS011;42848;42.524;12.052;2022-07-21T08:47:05;10.18;;;5.95;;
56943;SDS011;42848;42.524;12.052;2022-07-21T08:49:31;7.88;;;5.82;;
56943;SDS011;42848;42.524;12.052;2022-07-21T08:52:01;9.38;;;5.72;;
56943;SDS011;42848;42.524;12.052;2022-07-21T08:54:28;11.23;;;6.32;;
56943;SDS011;42848;42.524;12.052;2022-07-21T08:56:53;9.80;;;6.30;;
56943;SDS011;42848;42.524;12.052;2022-07-21T08:59:20;9.05;;;5.97;;
56943;SDS011;42848;42.524;12.052;2022-07-21T09:01:47;8.40;;;6.70;;
56943;SDS011;42848;42.524;12.052;2022-07-21T09:06:51;12.45;;;6.68;;
56943;SDS011;42848;42.524;12.052;2022-07-21T09:09:19;10.13;;;6.80;;
56943;SDS011;42848;42.524;12.052;2022-07-21T09:11:46;9.60;;;6.80;;
56943;SDS011;42848;42.524;12.052;2022-07-21T09:14:14;8.73;;;6.22;;
56943;SDS011;42848;42.524;12.052;2022-07-21T09:16:45;12.43;;;7.20;;
56943;SDS011;42848;42.524;12.052;2022-07-21T09:21:50;12.35;;;7.03;;
56943;SDS011;42848;42.524;12.052;2022-07-21T09:26:58;8.50;;;6.82;;
56943;SDS011;42848;42.524;12.052;2022-07-21T09:29:39;9.05;;;7.93;;
56943;SDS011;42848;42.524;12.052;2022-07-21T09:32:18;10.32;;;8.50;;
56943;SDS011;42848;42.524;12.052;2022-07-21T09:34:49;9.63;;;8.63;;
56943;SDS011;42848;42.524;12.052;2022-07-21T09:37:17;10.75;;;8.60;;
56943;SDS011;42848;42.524;12.052;2022-07-21T09:39:45;9.30;;;8.30;;
56943;SDS011;42848;42.524;12.052;2022-07-21T09:42:32;10.27;;;8.15;;
56943;SDS011;42848;42.524;12.052;2022-07-21T09:45:04;8.38;;;7.47;;
56943;SDS011;42848;42.524;12.052;2022-07-21T09:47:32;9.50;;;8.20;;
56943;SDS011;42848;42.524;12.052;2022-07-21T09:49:59;8.77;;;7.38;;
56943;SDS011;42848;42.524;12.052;2022-07-21T09:52:29;7.90;;;7.00;;
56943;SDS011;42848;42.524;12.052;2022-07-21T09:54:58;8.10;;;7.30;;
56943;SDS011;42848;42.524;12.052;2022-07-21T09:57:31;7.88;;;6.20;;
56943;SDS011;42848;42.524;12.052;2022-07-21T09:59:57;8.55;;;6.78;;
56943;SDS011;42848;42.524;12.052;2022-07-21T10:04:55;9.55;;;6.80;;
56943;SDS011;42848;42.524;12.052;2022-07-21T10:07:32;7.72;;;6.28;;
56943;SDS011;42848;42.524;12.052;2022-07-21T10:10:00;9.30;;;6.60;;
56943;SDS011;42848;42.524;12.052;2022-07-21T10:12:26;10.20;;;7.05;;
56943;SDS011;42848;42.524;12.052;2022-07-21T10:14:52;11.02;;;9.10;;
56943;SDS011;42848;42.524;12.052;2022-07-21T10:17:20;7.88;;;6.20;;
56943;SDS011;42848;42.524;12.052;2022-07-21T10:25:51;10.23;;;9.23;;
56943;SDS011;42848;42.524;12.052;2022-07-21T10:28:19;9.65;;;7.35;;
56943;SDS011;42848;42.524;12.052;2022-07-21T10:30:48;9.75;;;7.38;;
56943;SDS011;42848;42.524;12.052;2022-07-21T10:36:10;8.93;;;6.90;;
56943;SDS011;42848;42.524;12.052;2022-07-21T10:39:13;7.72;;;7.03;;
56943;SDS011;42848;42.524;12.052;2022-07-21T10:44:53;8.63;;;7.40;;
56943;SDS011;42848;42.524;12.052;2022-07-21T10:47:13;7.00;;;6.30;;
56943;SDS011;42848;42.524;12.052;2022-07-21T10:49:47;7.57;;;6.63;;
56943;SDS011;42848;42.524;12.052;2022-07-21T11:00:48;9.25;;;6.30;;
56943;SDS011;42848;42.524;12.052;2022-07-21T11:03:19;7.53;;;6.00;;
56943;SDS011;42848;42.524;12.052;2022-07-21T11:08:45;8.07;;;6.10;;
56943;SDS011;42848;42.524;12.052;2022-07-21T11:11:14;6.93;;;6.22;;
56943;SDS011;42848;42.524;12.052;2022-07-21T11:22:15;7.57;;;5.95;;
56943;SDS011;42848;42.524;12.052;2022-07-21T11:24:46;7.43;;;5.75;;
56943;SDS011;42848;42.524;12.052;2022-07-21T11:27:19;8.02;;;6.15;;
56943;SDS011;42848;42.524;12.052;2022-07-21T11:29:48;6.37;;;5.60;;
56943;SDS011;42848;42.524;12.052;2022-07-21T11:32:15;9.73;;;6.00;;
56943;SDS011;42848;42.524;12.052;2022-07-21T11:34:49;6.75;;;5.63;;
56943;SDS011;42848;42.524;12.052;2022-07-21T11:39:56;8.52;;;5.93;;
56943;SDS011;42848;42.524;12.052;2022-07-21T11:42:22;10.00;;;6.25;;
56943;SDS011;42848;42.524;12.052;2022-07-21T11:44:49;7.40;;;5.50;;
56943;SDS011;42848;42.524;12.052;2022-07-21T11:47:15;6.90;;;5.43;;
56943;SDS011;42848;42.524;12.052;2022-07-21T11:49:41;8.85;;;5.80;;
56943;SDS011;42848;42.524;12.052;2022-07-21T11:52:09;6.45;;;5.50;;
56943;SDS011;42848;42.524;12.052;2022-07-21T11:57:11;7.72;;;5.70;;
56943;SDS011;42848;42.524;12.052;2022-07-21T11:59:38;8.18;;;5.38;;
56943;SDS011;42848;42.524;12.052;2022-07-21T12:02:10;8.20;;;5.53;;
56943;SDS011;42848;42.524;12.052;2022-07-21T12:07:12;7.18;;;5.22;;
56943;SDS011;42848;42.524;12.052;2022-07-21T12:09:41;5.68;;;4.97;;
56943;SDS011;42848;42.524;12.052;2022-07-21T12:12:08;5.45;;;4.70;;
56943;SDS011;42848;42.524;12.052;2022-07-21T12:14:47;6.55;;;4.88;;
56943;SDS011;42848;42.524;12.052;2022-07-21T12:17:17;6.35;;;5.07;;
56943;SDS011;42848;42.524;12.052;2022-07-21T12:19:57;6.15;;;5.22;;
56943;SDS011;42848;42.524;12.052;2022-07-21T12:22:33;6.90;;;5.60;;
56943;SDS011;42848;42.524;12.052;2022-07-21T12:25:00;6.30;;;5.38;;
56943;SDS011;42848;42.524;12.052;2022-07-21T12:27:26;5.82;;;5.25;;
56943;SDS011;42848;42.524;12.052;2022-07-21T12:29:52;5.78;;;5.28;;
56943;SDS011;42848;42.524;12.052;2022-07-21T12:32:40;6.20;;;5.22;;
56943;SDS011;42848;42.524;12.052;2022-07-21T12:35:15;6.28;;;5.40;;
56943;SDS011;42848;42.524;12.052;2022-07-21T12:37:55;6.80;;;5.28;;
56943;SDS011;42848;42.524;12.052;2022-07-21T12:40:22;6.50;;;5.57;;
56943;SDS011;42848;42.524;12.052;2022-07-21T12:42:48;7.35;;;5.60;;
56943;SDS011;42848;42.524;12.052;2022-07-21T12:45:16;6.85;;;5.50;;
56943;SDS011;42848;42.524;12.052;2022-07-21T12:48:04;6.50;;;5.57;;
56943;SDS011;42848;42.524;12.052;2022-07-21T12:50:31;6.90;;;5.70;;
56943;SDS011;42848;42.524;12.052;2022-07-21T12:52:57;6.28;;;5.68;;
56943;SDS011;42848;42.524;12.052;2022-07-21T12:55:22;5.63;;;5.03;;
56943;SDS011;42848;42.524;12.052;2022-07-21T12:57:48;6.93;;;5.50;;
56943;SDS011;42848;42.524;12.052;2022-07-21T13:00:14;6.93;;;5.50;;
56943;SDS011;42848;42.524;12.052;2022-07-21T13:02:50;6.80;;;5.78;;
56943;SDS011;42848;42.524;12.052;2022-07-21T13:05:17;7.28;;;5.53;;
56943;SDS011;42848;42.524;12.052;2022-07-21T13:07:43;6.50;;;5.90;;
56943;SDS011;42848;42.524;12.052;2022-07-21T13:10:09;6.43;;;5.80;;
56943;SDS011;42848;42.524;12.052;2022-07-21T13:12:35;6.28;;;5.65;;
56943;SDS011;42848;42.524;12.052;2022-07-21T13:15:00;6.43;;;5.72;;
56943;SDS011;42848;42.524;12.052;2022-07-21T13:17:26;7.30;;;5.40;;
56943;SDS011;42848;42.524;12.052;2022-07-21T13:19:52;6.88;;;5.55;;
56943;SDS011;42848;42.524;12.052;2022-07-21T13:22:17;5.90;;;5.30;;
56943;SDS011;42848;42.524;12.052;2022-07-21T13:24:43;7.97;;;5.50;;
56943;SDS011;42848;42.524;12.052;2022-07-21T13:27:09;6.50;;;5.68;;
56943;SDS011;42848;42.524;12.052;2022-07-21T13:29:34;6.18;;;5.47;;
56943;SDS011;42848;42.524;12.052;2022-07-21T13:32:02;8.40;;;5.80;;
56943;SDS011;42848;42.524;12.052;2022-07-21T13:34:27;10.63;;;5.70;;
56943;SDS011;42848;42.524;12.052;2022-07-21T13:36:53;5.88;;;5.28;;
56943;SDS011;42848;42.524;12.052;2022-07-21T13:39:19;6.13;;;5.53;;
56943;SDS011;42848;42.524;12.052;2022-07-21T13:41:47;14.73;;;6.32;;
56943;SDS011;42848;42.524;12.052;2022-07-21T13:44:13;8.55;;;5.82;;
56943;SDS011;42848;42.524;12.052;2022-07-21T13:46:38;6.07;;;5.35;;
56943;SDS011;42848;42.524;12.052;2022-07-21T13:49:04;6.00;;;5.40;;
56943;SDS011;42848;42.524;12.052;2022-07-21T13:51:30;6.22;;;5.25;;
56943;SDS011;42848;42.524;12.052;2022-07-21T13:53:55;5.82;;;5.22;;
56943;SDS011;42848;42.524;12.052;2022-07-21T13:56:21;6.03;;;5.43;;
56943;SDS011;42848;42.524;12.052;2022-07-21T13:58:47;5.65;;;5.05;;
56943;SDS011;42848;42.524;12.052;2022-07-21T14:01:13;6.47;;;5.43;;
56943;SDS011;42848;42.524;12.052;2022-07-21T14:03:40;6.57;;;5.03;;
56943;SDS011;42848;42.524;12.052;2022-07-21T14:06:06;9.25;;;5.65;;
56943;SDS011;42848;42.524;12.052;2022-07-21T14:08:32;6.25;;;5.30;;
56943;SDS011;42848;42.524;12.052;2022-07-21T14:11:00;6.00;;;5.43;;
56943;SDS011;42848;42.524;12.052;2022-07-21T14:13:26;7.13;;;5.30;;
56943;SDS011;42848;42.524;12.052;2022-07-21T14:15:52;6.22;;;5.00;;
56943;SDS011;42848;42.524;12.052;2022-07-21T14:18:18;8.82;;;5.30;;
56943;SDS011;42848;42.524;12.052;2022-07-21T14:20:44;8.02;;;5.32;;
56943;SDS011;42848;42.524;12.052;2022-07-21T14:23:10;6.07;;;5.43;;
56943;SDS011;42848;42.524;12.052;2022-07-21T14:25:35;6.45;;;5.35;;
56943;SDS011;42848;42.524;12.052;2022-07-21T14:28:01;9.60;;;5.60;;
56943;SDS011;42848;42.524;12.052;2022-07-21T14:30:28;6.15;;;5.20;;
56943;SDS011;42848;42.524;12.052;2022-07-21T14:32:54;6.55;;;5.50;;
56943;SDS011;42848;42.524;12.052;2022-07-21T14:35:20;5.57;;;5.07;;
56943;SDS011;42848;42.524;12.052;2022-07-21T14:37:47;7.07;;;4.93;;
56943;SDS011;42848;42.524;12.052;2022-07-21T14:40:14;8.10;;;5.10;;
56943;SDS011;42848;42.524;12.052;2022-07-21T14:42:41;9.55;;;5.13;;
56943;SDS011;42848;42.524;12.052;2022-07-21T14:45:08;5.50;;;4.90;;
56943;SDS011;42848;42.524;12.052;2022-07-21T14:47:34;6.18;;;5.00;;
56943;SDS011;42848;42.524;12.052;2022-07-21T14:50:00;5.60;;;5.05;;
56943;SDS011;42848;42.524;12.052;2022-07-21T14:52:26;6.25;;;4.95;;
56943;SDS011;42848;42.524;12.052;2022-07-21T14:54:51;6.60;;;4.70;;
56943;SDS011;42848;42.524;12.052;2022-07-21T14:57:17;5.45;;;4.70;;
56943;SDS011;42848;42.524;12.052;2022-07-21T14:59:43;5.75;;;5.10;;
56943;SDS011;42848;42.524;12.052;2022-07-21T15:02:08;5.18;;;4.65;;
56943;SDS011;42848;42.524;12.052;2022-07-21T15:04:35;5.07;;;4.55;;
56943;SDS011;42848;42.524;12.052;2022-07-21T15:07:00;5.07;;;4.55;;
56943;SDS011;42848;42.524;12.052;2022-07-21T15:09:26;6.38;;;4.68;;
56943;SDS011;42848;42.524;12.052;2022-07-21T15:11:52;7.82;;;4.63;;
56943;SDS011;42848;42.524;12.052;2022-07-21T15:14:17;5.43;;;4.80;;
56943;SDS011;42848;42.524;12.052;2022-07-21T15:16:43;9.80;;;4.72;;
56943;SDS011;42848;42.524;12.052;2022-07-21T15:19:09;7.97;;;4.53;;
56943;SDS011;42848;42.524;12.052;2022-07-21T15:21:34;7.13;;;4.75;;